sensor_id;sensor_type;location;lat;lon;timestamp;temperature;humidity
15765;DHT22;7983;50.744;7.086;2023-07-22T00:01:16;16.00;99.90
15765;DHT22;7983;50.744;7.086;2023-07-22T00:03:41;16.00;99.90
15765;DHT22;7983;50.744;7.086;2023-07-22T00:06:11;16.00;99.90
15765;DHT22;7983;50.744;7.086;2023-07-22T00:08:41;16.00;99.90
15765;DHT22;7983;50.744;7.086;2023-07-22T00:11:07;16.00;99.90
15765;DHT22;7983;50.744;7.086;2023-07-22T00:13:35;16.00;99.90
15765;DHT22;7983;50.744;7.086;2023-07-22T00:16:03;16.00;99.90
15765;DHT22;7983;50.744;7.086;2023-07-22T00:18:33;16.00;99.90
15765;DHT22;7983;50.744;7.086;2023-07-22T00:21:01;16.00;99.90
15765;DHT22;7983;50.744;7.086;2023-07-22T00:23:31;15.90;99.90
15765;DHT22;7983;50.744;7.086;2023-07-22T00:25:57;15.90;99.90
15765;DHT22;7983;50.744;7.086;2023-07-22T00:28:24;15.90;99.90
15765;DHT22;7983;50.744;7.086;2023-07-22T00:30:53;15.90;99.90
15765;DHT22;7983;50.744;7.086;2023-07-22T00:33:19;15.80;99.90
15765;DHT22;7983;50.744;7.086;2023-07-22T00:35:48;15.80;99.90
15765;DHT22;7983;50.744;7.086;2023-07-22T00:38:15;15.80;99.90
15765;DHT22;7983;50.744;7.086;2023-07-22T00:40:43;15.80;99.90
15765;DHT22;7983;50.744;7.086;2023-07-22T00:43:09;15.80;99.90
15765;DHT22;7983;50.744;7.086;2023-07-22T00:45:35;15.80;99.90
15765;DHT22;7983;50.744;7.086;2023-07-22T00:48:02;15.80;99.90
15765;DHT22;7983;50.744;7.086;2023-07-22T00:50:33;15.80;99.90
15765;DHT22;7983;50.744;7.086;2023-07-22T00:53:03;15.80;99.90
15765;DHT22;7983;50.744;7.086;2023-07-22T00:55:29;15.70;99.90
15765;DHT22;7983;50.744;7.086;2023-07-22T00:57:57;15.70;99.90
15765;DHT22;7983;50.744;7.086;2023-07-22T01:00:23;15.70;99.90
15765;DHT22;7983;50.744;7.086;2023-07-22T01:02:49;15.70;99.90
15765;DHT22;7983;50.744;7.086;2023-07-22T01:05:19;15.70;99.90
15765;DHT22;7983;50.744;7.086;2023-07-22T01:07:45;15.60;99.90
15765;DHT22;7983;50.744;7.086;2023-07-22T01:10:13;15.60;99.90
15765;DHT22;7983;50.744;7.086;2023-07-22T01:12:40;15.60;99.90
15765;DHT22;7983;50.744;7.086;2023-07-22T01:15:06;15.60;99.90
15765;DHT22;7983;50.744;7.086;2023-07-22T01:17:34;15.50;99.90
15765;DHT22;7983;50.744;7.086;2023-07-22T01:20:00;15.50;99.90
15765;DHT22;7983;50.744;7.086;2023-07-22T01:22:32;15.50;99.90
15765;DHT22;7983;50.744;7.086;2023-07-22T01:25:01;15.40;99.90
15765;DHT22;7983;50.744;7.086;2023-07-22T01:27:27;15.40;99.90
15765;DHT22;7983;50.744;7.086;2023-07-22T01:29:54;15.40;99.90
15765;DHT22;7983;50.744;7.086;2023-07-22T01:32:20;15.40;99.90
15765;DHT22;7983;50.744;7.086;2023-07-22T01:34:46;15.40;99.90
15765;DHT22;7983;50.744;7.086;2023-07-22T01:37:14;15.30;99.90
15765;DHT22;7983;50.744;7.086;2023-07-22T01:39:42;15.30;99.90
15765;DHT22;7983;50.744;7.086;2023-07-22T01:42:08;15.30;99.90
15765;DHT22;7983;50.744;7.086;2023-07-22T01:44:36;15.30;99.90
15765;DHT22;7983;50.744;7.086;2023-07-22T01:47:02;15.20;99.90
15765;DHT22;7983;50.744;7.086;2023-07-22T01:49:28;15.20;99.90
15765;DHT22;7983;50.744;7.086;2023-07-22T01:51:56;15.20;99.90
15765;DHT22;7983;50.744;7.086;2023-07-22T01:54:22;15.20;99.90
15765;DHT22;7983;50.744;7.086;2023-07-22T01:56:52;15.20;99.90
15765;DHT22;7983;50.744;7.086;2023-07-22T01:59:18;15.20;99.90
15765;DHT22;7983;50.744;7.086;2023-07-22T02:01:45;15.20;99.90
15765;DHT22;7983;50.744;7.086;2023-07-22T02:04:13;15.20;99.90
15765;DHT22;7983;50.744;7.086;2023-07-22T02:06:39;15.10;99.90
15765;DHT22;7983;50.744;7.086;2023-07-22T02:09:06;15.10;99.90
15765;DHT22;7983;50.744;7.086;2023-07-22T02:11:35;15.10;99.90
15765;DHT22;7983;50.744;7.086;2023-07-22T02:14:01;15.10;99.90
15765;DHT22;7983;50.744;7.086;2023-07-22T02:16:29;15.10;99.90
15765;DHT22;7983;50.744;7.086;2023-07-22T02:18:54;15.10;99.90
15765;DHT22;7983;50.744;7.086;2023-07-22T02:21:20;15.10;99.90
15765;DHT22;7983;50.744;7.086;2023-07-22T02:23:47;15.00;99.90
15765;DHT22;7983;50.744;7.086;2023-07-22T02:26:14;15.10;99.90
15765;DHT22;7983;50.744;7.086;2023-07-22T02:28:40;15.10;99.90
15765;DHT22;7983;50.744;7.086;2023-07-22T02:31:08;15.10;99.90
15765;DHT22;7983;50.744;7.086;2023-07-22T02:33:34;15.00;99.90
15765;DHT22;7983;50.744;7.086;2023-07-22T02:36:02;15.00;99.90
15765;DHT22;7983;50.744;7.086;2023-07-22T02:38:27;15.10;99.90
15765;DHT22;7983;50.744;7.086;2023-07-22T02:41:01;15.10;99.90
15765;DHT22;7983;50.744;7.086;2023-07-22T02:43:32;15.10;99.90
15765;DHT22;7983;50.744;7.086;2023-07-22T02:46:01;15.10;99.90
15765;DHT22;7983;50.744;7.086;2023-07-22T02:48:27;15.20;99.90
15765;DHT22;7983;50.744;7.086;2023-07-22T02:50:53;15.20;99.90
15765;DHT22;7983;50.744;7.086;2023-07-22T02:53:21;15.20;99.90
15765;DHT22;7983;50.744;7.086;2023-07-22T02:55:47;15.20;99.90
15765;DHT22;7983;50.744;7.086;2023-07-22T02:58:13;15.20;99.90
15765;DHT22;7983;50.744;7.086;2023-07-22T03:00:39;15.20;99.90
15765;DHT22;7983;50.744;7.086;2023-07-22T03:03:10;15.30;99.90
15765;DHT22;7983;50.744;7.086;2023-07-22T03:05:36;15.20;99.90
15765;DHT22;7983;50.744;7.086;2023-07-22T03:08:01;15.20;99.90
15765;DHT22;7983;50.744;7.086;2023-07-22T03:10:28;15.10;99.90
15765;DHT22;7983;50.744;7.086;2023-07-22T03:12:55;15.10;99.90
15765;DHT22;7983;50.744;7.086;2023-07-22T03:15:24;15.10;99.90
15765;DHT22;7983;50.744;7.086;2023-07-22T03:17:54;15.00;99.90
15765;DHT22;7983;50.744;7.086;2023-07-22T03:20:21;15.00;99.90
15765;DHT22;7983;50.744;7.086;2023-07-22T03:22:50;15.00;99.90
15765;DHT22;7983;50.744;7.086;2023-07-22T03:25:16;15.00;99.90
15765;DHT22;7983;50.744;7.086;2023-07-22T03:27:48;15.00;99.90
15765;DHT22;7983;50.744;7.086;2023-07-22T03:30:15;14.90;99.90
15765;DHT22;7983;50.744;7.086;2023-07-22T03:32:41;14.90;99.90
15765;DHT22;7983;50.744;7.086;2023-07-22T03:35:10;14.90;99.90
15765;DHT22;7983;50.744;7.086;2023-07-22T03:37:38;14.90;99.90
15765;DHT22;7983;50.744;7.086;2023-07-22T03:40:07;14.90;99.90
15765;DHT22;7983;50.744;7.086;2023-07-22T03:42:40;14.90;99.90
15765;DHT22;7983;50.744;7.086;2023-07-22T03:45:07;14.90;99.90
15765;DHT22;7983;50.744;7.086;2023-07-22T03:47:35;14.90;99.90
15765;DHT22;7983;50.744;7.086;2023-07-22T03:50:01;14.90;99.90
15765;DHT22;7983;50.744;7.086;2023-07-22T03:52:27;14.90;99.90
15765;DHT22;7983;50.744;7.086;2023-07-22T03:54:53;14.90;99.90
15765;DHT22;7983;50.744;7.086;2023-07-22T03:57:25;15.00;99.90
15765;DHT22;7983;50.744;7.086;2023-07-22T03:59:51;15.00;99.90
15765;DHT22;7983;50.744;7.086;2023-07-22T04:02:16;15.00;99.90
15765;DHT22;7983;50.744;7.086;2023-07-22T04:04:42;15.00;99.90
15765;DHT22;7983;50.744;7.086;2023-07-22T04:07:08;15.00;99.90
15765;DHT22;7983;50.744;7.086;2023-07-22T04:09:35;15.00;99.90
15765;DHT22;7983;50.744;7.086;2023-07-22T04:12:00;15.10;99.90
15765;DHT22;7983;50.744;7.086;2023-07-22T04:14:31;15.10;99.90
15765;DHT22;7983;50.744;7.086;2023-07-22T04:16:56;15.10;99.90
15765;DHT22;7983;50.744;7.086;2023-07-22T04:19:25;15.10;99.90
15765;DHT22;7983;50.744;7.086;2023-07-22T04:21:50;15.10;99.90
15765;DHT22;7983;50.744;7.086;2023-07-22T04:24:16;15.20;99.90
15765;DHT22;7983;50.744;7.086;2023-07-22T04:26:43;15.20;99.90
15765;DHT22;7983;50.744;7.086;2023-07-22T04:29:08;15.20;99.90
15765;DHT22;7983;50.744;7.086;2023-07-22T04:31:34;15.20;99.90
15765;DHT22;7983;50.744;7.086;2023-07-22T04:34:00;15.30;99.90
15765;DHT22;7983;50.744;7.086;2023-07-22T04:36:26;15.30;99.90
15765;DHT22;7983;50.744;7.086;2023-07-22T04:38:51;15.30;99.90
15765;DHT22;7983;50.744;7.086;2023-07-22T04:41:17;15.40;99.90
15765;DHT22;7983;50.744;7.086;2023-07-22T04:43:43;15.30;99.90
15765;DHT22;7983;50.744;7.086;2023-07-22T04:46:11;15.40;99.90
15765;DHT22;7983;50.744;7.086;2023-07-22T04:48:39;15.40;99.90
15765;DHT22;7983;50.744;7.086;2023-07-22T04:51:05;15.40;99.90
15765;DHT22;7983;50.744;7.086;2023-07-22T04:53:30;15.40;99.90
15765;DHT22;7983;50.744;7.086;2023-07-22T04:55:58;15.40;99.90
15765;DHT22;7983;50.744;7.086;2023-07-22T04:58:24;15.40;99.90
15765;DHT22;7983;50.744;7.086;2023-07-22T05:00:52;15.50;99.90
15765;DHT22;7983;50.744;7.086;2023-07-22T05:03:18;15.40;99.90
15765;DHT22;7983;50.744;7.086;2023-07-22T05:05:44;15.50;99.90
15765;DHT22;7983;50.744;7.086;2023-07-22T05:08:10;15.50;99.90
15765;DHT22;7983;50.744;7.086;2023-07-22T05:10:37;15.50;99.90
15765;DHT22;7983;50.744;7.086;2023-07-22T05:13:03;15.50;99.90
15765;DHT22;7983;50.744;7.086;2023-07-22T05:15:29;15.50;99.90
15765;DHT22;7983;50.744;7.086;2023-07-22T05:17:54;15.60;99.90
15765;DHT22;7983;50.744;7.086;2023-07-22T05:20:20;15.60;99.90
15765;DHT22;7983;50.744;7.086;2023-07-22T05:22:46;15.60;99.90
15765;DHT22;7983;50.744;7.086;2023-07-22T05:25:13;15.60;99.90
15765;DHT22;7983;50.744;7.086;2023-07-22T05:27:40;15.70;99.90
15765;DHT22;7983;50.744;7.086;2023-07-22T05:30:06;15.70;99.90
15765;DHT22;7983;50.744;7.086;2023-07-22T05:32:32;15.70;99.90
15765;DHT22;7983;50.744;7.086;2023-07-22T05:35:00;15.80;99.90
15765;DHT22;7983;50.744;7.086;2023-07-22T05:37:27;15.80;99.90
15765;DHT22;7983;50.744;7.086;2023-07-22T05:39:52;15.90;99.90
15765;DHT22;7983;50.744;7.086;2023-07-22T05:42:18;15.90;99.90
15765;DHT22;7983;50.744;7.086;2023-07-22T05:44:46;16.00;99.90
15765;DHT22;7983;50.744;7.086;2023-07-22T05:47:11;16.00;99.90
15765;DHT22;7983;50.744;7.086;2023-07-22T05:49:37;16.10;99.90
15765;DHT22;7983;50.744;7.086;2023-07-22T05:52:03;16.10;99.90
15765;DHT22;7983;50.744;7.086;2023-07-22T05:54:29;16.20;99.90
15765;DHT22;7983;50.744;7.086;2023-07-22T05:56:54;16.20;99.90
15765;DHT22;7983;50.744;7.086;2023-07-22T05:59:22;16.20;99.90
15765;DHT22;7983;50.744;7.086;2023-07-22T06:01:48;16.30;99.90
15765;DHT22;7983;50.744;7.086;2023-07-22T06:04:13;16.40;99.90
15765;DHT22;7983;50.744;7.086;2023-07-22T06:06:41;16.40;99.90
15765;DHT22;7983;50.744;7.086;2023-07-22T06:09:07;16.50;99.90
15765;DHT22;7983;50.744;7.086;2023-07-22T06:11:32;16.50;99.90
15765;DHT22;7983;50.744;7.086;2023-07-22T06:14:00;16.60;99.90
15765;DHT22;7983;50.744;7.086;2023-07-22T06:16:26;16.60;99.90
15765;DHT22;7983;50.744;7.086;2023-07-22T06:18:51;16.70;99.90
15765;DHT22;7983;50.744;7.086;2023-07-22T06:21:17;16.70;99.90
15765;DHT22;7983;50.744;7.086;2023-07-22T06:23:42;16.80;99.90
15765;DHT22;7983;50.744;7.086;2023-07-22T06:26:10;16.90;99.90
15765;DHT22;7983;50.744;7.086;2023-07-22T06:28:36;16.90;99.90
15765;DHT22;7983;50.744;7.086;2023-07-22T06:31:02;17.00;99.90
15765;DHT22;7983;50.744;7.086;2023-07-22T06:33:27;17.10;99.90
15765;DHT22;7983;50.744;7.086;2023-07-22T06:35:55;17.10;99.90
15765;DHT22;7983;50.744;7.086;2023-07-22T06:38:23;17.20;99.90
15765;DHT22;7983;50.744;7.086;2023-07-22T06:40:49;17.30;99.90
15765;DHT22;7983;50.744;7.086;2023-07-22T06:43:17;17.30;99.90
15765;DHT22;7983;50.744;7.086;2023-07-22T06:45:47;17.40;99.90
15765;DHT22;7983;50.744;7.086;2023-07-22T06:48:15;17.50;99.90
15765;DHT22;7983;50.744;7.086;2023-07-22T06:50:47;17.60;99.90
15765;DHT22;7983;50.744;7.086;2023-07-22T06:53:13;17.70;99.90
15765;DHT22;7983;50.744;7.086;2023-07-22T06:55:40;17.70;99.90
15765;DHT22;7983;50.744;7.086;2023-07-22T06:58:13;17.80;99.90
15765;DHT22;7983;50.744;7.086;2023-07-22T07:00:38;17.90;99.90
15765;DHT22;7983;50.744;7.086;2023-07-22T07:03:04;17.90;99.90
15765;DHT22;7983;50.744;7.086;2023-07-22T07:05:30;18.00;99.90
15765;DHT22;7983;50.744;7.086;2023-07-22T07:08:00;18.00;99.90
15765;DHT22;7983;50.744;7.086;2023-07-22T07:10:26;18.10;99.90
15765;DHT22;7983;50.744;7.086;2023-07-22T07:12:51;18.20;99.90
15765;DHT22;7983;50.744;7.086;2023-07-22T07:15:19;18.20;99.90
15765;DHT22;7983;50.744;7.086;2023-07-22T07:17:48;18.30;99.90
15765;DHT22;7983;50.744;7.086;2023-07-22T07:20:14;18.40;99.90
15765;DHT22;7983;50.744;7.086;2023-07-22T07:22:42;18.50;99.90
15765;DHT22;7983;50.744;7.086;2023-07-22T07:25:08;18.60;99.90
15765;DHT22;7983;50.744;7.086;2023-07-22T07:27:37;18.70;99.90
15765;DHT22;7983;50.744;7.086;2023-07-22T07:30:08;18.80;99.90
15765;DHT22;7983;50.744;7.086;2023-07-22T07:32:34;18.90;99.90
15765;DHT22;7983;50.744;7.086;2023-07-22T07:35:00;19.00;99.90
15765;DHT22;7983;50.744;7.086;2023-07-22T07:37:26;19.20;99.90
15765;DHT22;7983;50.744;7.086;2023-07-22T07:39:51;19.30;99.90
15765;DHT22;7983;50.744;7.086;2023-07-22T07:42:20;19.30;99.90
15765;DHT22;7983;50.744;7.086;2023-07-22T07:44:46;19.40;99.90
15765;DHT22;7983;50.744;7.086;2023-07-22T07:47:11;19.50;99.90
15765;DHT22;7983;50.744;7.086;2023-07-22T07:49:37;19.60;99.90
15765;DHT22;7983;50.744;7.086;2023-07-22T07:52:03;19.60;99.90
15765;DHT22;7983;50.744;7.086;2023-07-22T07:54:28;19.70;99.90
15765;DHT22;7983;50.744;7.086;2023-07-22T07:56:54;19.80;99.90
15765;DHT22;7983;50.744;7.086;2023-07-22T07:59:25;19.80;99.90
15765;DHT22;7983;50.744;7.086;2023-07-22T08:01:52;19.90;99.90
15765;DHT22;7983;50.744;7.086;2023-07-22T08:04:18;20.00;99.90
15765;DHT22;7983;50.744;7.086;2023-07-22T08:06:51;20.00;99.90
15765;DHT22;7983;50.744;7.086;2023-07-22T08:09:16;20.10;99.90
15765;DHT22;7983;50.744;7.086;2023-07-22T08:11:47;20.10;99.90
15765;DHT22;7983;50.744;7.086;2023-07-22T08:14:12;20.30;99.90
15765;DHT22;7983;50.744;7.086;2023-07-22T08:16:40;20.30;99.90
15765;DHT22;7983;50.744;7.086;2023-07-22T08:19:08;20.40;99.90
15765;DHT22;7983;50.744;7.086;2023-07-22T08:21:34;20.50;99.90
15765;DHT22;7983;50.744;7.086;2023-07-22T08:23:59;20.60;99.90
15765;DHT22;7983;50.744;7.086;2023-07-22T08:26:25;20.70;99.90
15765;DHT22;7983;50.744;7.086;2023-07-22T08:28:53;20.80;99.90
15765;DHT22;7983;50.744;7.086;2023-07-22T08:31:21;20.90;99.90
15765;DHT22;7983;50.744;7.086;2023-07-22T08:33:46;21.10;99.90
15765;DHT22;7983;50.744;7.086;2023-07-22T08:36:12;21.20;99.90
15765;DHT22;7983;50.744;7.086;2023-07-22T08:38:38;21.20;99.90
15765;DHT22;7983;50.744;7.086;2023-07-22T08:41:04;21.30;99.90
15765;DHT22;7983;50.744;7.086;2023-07-22T08:43:29;21.40;99.90
15765;DHT22;7983;50.744;7.086;2023-07-22T08:46:01;21.50;99.90
15765;DHT22;7983;50.744;7.086;2023-07-22T08:48:31;21.60;99.90
15765;DHT22;7983;50.744;7.086;2023-07-22T08:51:10;21.70;99.90
15765;DHT22;7983;50.744;7.086;2023-07-22T08:53:39;21.80;99.90
15765;DHT22;7983;50.744;7.086;2023-07-22T08:56:05;21.90;99.90
15765;DHT22;7983;50.744;7.086;2023-07-22T08:58:34;22.00;99.90
15765;DHT22;7983;50.744;7.086;2023-07-22T09:01:02;22.10;99.90
15765;DHT22;7983;50.744;7.086;2023-07-22T09:03:28;22.30;99.90
15765;DHT22;7983;50.744;7.086;2023-07-22T09:05:54;22.40;99.90
15765;DHT22;7983;50.744;7.086;2023-07-22T09:08:20;22.50;99.90
15765;DHT22;7983;50.744;7.086;2023-07-22T09:10:48;22.60;99.90
15765;DHT22;7983;50.744;7.086;2023-07-22T09:13:14;22.70;99.90
15765;DHT22;7983;50.744;7.086;2023-07-22T09:15:40;22.70;99.90
15765;DHT22;7983;50.744;7.086;2023-07-22T09:18:06;22.70;99.90
15765;DHT22;7983;50.744;7.086;2023-07-22T09:20:33;22.80;99.90
15765;DHT22;7983;50.744;7.086;2023-07-22T09:23:02;22.80;99.90
15765;DHT22;7983;50.744;7.086;2023-07-22T09:25:28;22.90;99.90
15765;DHT22;7983;50.744;7.086;2023-07-22T09:28:03;22.90;99.90
15765;DHT22;7983;50.744;7.086;2023-07-22T09:30:36;23.00;99.90
15765;DHT22;7983;50.744;7.086;2023-07-22T09:33:07;23.00;99.90
15765;DHT22;7983;50.744;7.086;2023-07-22T09:35:45;23.10;99.90
15765;DHT22;7983;50.744;7.086;2023-07-22T09:38:12;23.20;99.90
15765;DHT22;7983;50.744;7.086;2023-07-22T09:40:42;23.20;99.90
15765;DHT22;7983;50.744;7.086;2023-07-22T09:43:10;23.30;99.90
15765;DHT22;7983;50.744;7.086;2023-07-22T09:45:37;23.30;99.90
15765;DHT22;7983;50.744;7.086;2023-07-22T09:48:06;23.40;99.90
15765;DHT22;7983;50.744;7.086;2023-07-22T09:50:36;23.40;99.90
15765;DHT22;7983;50.744;7.086;2023-07-22T09:53:04;23.50;99.90
15765;DHT22;7983;50.744;7.086;2023-07-22T09:55:31;23.60;99.90
15765;DHT22;7983;50.744;7.086;2023-07-22T09:58:02;23.70;99.90
15765;DHT22;7983;50.744;7.086;2023-07-22T10:00:33;23.80;99.90
15765;DHT22;7983;50.744;7.086;2023-07-22T10:02:59;23.90;99.90
15765;DHT22;7983;50.744;7.086;2023-07-22T10:05:27;23.90;99.90
15765;DHT22;7983;50.744;7.086;2023-07-22T10:07:57;24.00;99.90
15765;DHT22;7983;50.744;7.086;2023-07-22T10:10:37;24.10;99.90
15765;DHT22;7983;50.744;7.086;2023-07-22T10:13:04;24.20;99.90
15765;DHT22;7983;50.744;7.086;2023-07-22T10:15:33;24.30;99.90
15765;DHT22;7983;50.744;7.086;2023-07-22T10:18:03;24.40;99.90
15765;DHT22;7983;50.744;7.086;2023-07-22T10:20:32;24.50;99.90
15765;DHT22;7983;50.744;7.086;2023-07-22T10:23:04;24.50;99.90
15765;DHT22;7983;50.744;7.086;2023-07-22T10:25:33;24.50;99.90
15765;DHT22;7983;50.744;7.086;2023-07-22T10:27:59;24.60;99.90
15765;DHT22;7983;50.744;7.086;2023-07-22T10:30:26;24.60;99.90
15765;DHT22;7983;50.744;7.086;2023-07-22T10:32:53;24.60;99.90
15765;DHT22;7983;50.744;7.086;2023-07-22T10:38:09;24.60;99.90
15765;DHT22;7983;50.744;7.086;2023-07-22T10:40:49;24.70;99.90
15765;DHT22;7983;50.744;7.086;2023-07-22T10:43:16;24.80;99.90
15765;DHT22;7983;50.744;7.086;2023-07-22T10:45:54;24.90;99.90
15765;DHT22;7983;50.744;7.086;2023-07-22T10:48:22;25.00;99.90
15765;DHT22;7983;50.744;7.086;2023-07-22T10:50:53;25.10;99.90
15765;DHT22;7983;50.744;7.086;2023-07-22T10:53:28;25.20;99.90
15765;DHT22;7983;50.744;7.086;2023-07-22T11:12:13;26.20;99.90
15765;DHT22;7983;50.744;7.086;2023-07-22T11:14:50;26.40;99.90
15765;DHT22;7983;50.744;7.086;2023-07-22T11:17:16;26.60;99.90
15765;DHT22;7983;50.744;7.086;2023-07-22T11:19:45;26.60;99.90
15765;DHT22;7983;50.744;7.086;2023-07-22T11:22:10;26.50;99.90
15765;DHT22;7983;50.744;7.086;2023-07-22T11:24:38;26.50;99.90
15765;DHT22;7983;50.744;7.086;2023-07-22T11:27:08;26.60;99.90
15765;DHT22;7983;50.744;7.086;2023-07-22T11:29:34;26.60;99.90
15765;DHT22;7983;50.744;7.086;2023-07-22T11:32:01;26.60;99.90
15765;DHT22;7983;50.744;7.086;2023-07-22T11:34:27;26.50;99.90
15765;DHT22;7983;50.744;7.086;2023-07-22T11:36:56;26.60;99.90
15765;DHT22;7983;50.744;7.086;2023-07-22T11:39:26;26.70;99.50
15765;DHT22;7983;50.744;7.086;2023-07-22T11:42:00;26.70;98.20
15765;DHT22;7983;50.744;7.086;2023-07-22T11:44:27;26.70;98.80
15765;DHT22;7983;50.744;7.086;2023-07-22T11:47:03;26.60;97.40
15765;DHT22;7983;50.744;7.086;2023-07-22T11:49:35;26.60;98.50
15765;DHT22;7983;50.744;7.086;2023-07-22T11:52:05;26.60;97.70
15765;DHT22;7983;50.744;7.086;2023-07-22T11:54:37;26.60;96.30
15765;DHT22;7983;50.744;7.086;2023-07-22T11:57:29;26.60;95.50
15765;DHT22;7983;50.744;7.086;2023-07-22T11:59:58;26.60;94.00
15765;DHT22;7983;50.744;7.086;2023-07-22T12:02:25;26.60;96.70
15765;DHT22;7983;50.744;7.086;2023-07-22T12:07:29;26.60;85.40
15765;DHT22;7983;50.744;7.086;2023-07-22T12:10:02;26.60;93.00
15765;DHT22;7983;50.744;7.086;2023-07-22T12:12:44;26.60;92.00
15765;DHT22;7983;50.744;7.086;2023-07-22T12:15:20;26.60;90.30
15765;DHT22;7983;50.744;7.086;2023-07-22T12:20:28;26.60;91.20
15765;DHT22;7983;50.744;7.086;2023-07-22T12:22:56;26.60;91.20
15765;DHT22;7983;50.744;7.086;2023-07-22T12:25:22;26.70;93.40
15765;DHT22;7983;50.744;7.086;2023-07-22T12:27:48;26.80;93.70
15765;DHT22;7983;50.744;7.086;2023-07-22T12:30:16;26.80;94.30
15765;DHT22;7983;50.744;7.086;2023-07-22T12:32:42;26.80;92.50
15765;DHT22;7983;50.744;7.086;2023-07-22T12:35:10;26.80;93.70
15765;DHT22;7983;50.744;7.086;2023-07-22T12:37:36;26.90;92.70
15765;DHT22;7983;50.744;7.086;2023-07-22T12:40:05;26.90;90.90
15765;DHT22;7983;50.744;7.086;2023-07-22T12:42:37;26.90;88.40
15765;DHT22;7983;50.744;7.086;2023-07-22T12:45:06;26.90;90.20
15765;DHT22;7983;50.744;7.086;2023-07-22T12:50:07;26.80;89.70
15765;DHT22;7983;50.744;7.086;2023-07-22T12:52:33;26.90;90.70
15765;DHT22;7983;50.744;7.086;2023-07-22T12:54:58;26.90;90.60
15765;DHT22;7983;50.744;7.086;2023-07-22T12:57:26;26.90;91.00
15765;DHT22;7983;50.744;7.086;2023-07-22T12:59:52;27.00;90.20
15765;DHT22;7983;50.744;7.086;2023-07-22T13:02:22;27.00;90.00
15765;DHT22;7983;50.744;7.086;2023-07-22T13:04:53;27.00;85.80
15765;DHT22;7983;50.744;7.086;2023-07-22T13:07:19;27.00;85.20
15765;DHT22;7983;50.744;7.086;2023-07-22T13:09:44;27.10;90.50
15765;DHT22;7983;50.744;7.086;2023-07-22T13:12:14;27.10;90.60
15765;DHT22;7983;50.744;7.086;2023-07-22T13:14:40;27.30;90.10
15765;DHT22;7983;50.744;7.086;2023-07-22T13:17:08;27.40;88.30
15765;DHT22;7983;50.744;7.086;2023-07-22T13:19:33;27.40;86.30
15765;DHT22;7983;50.744;7.086;2023-07-22T13:21:59;27.40;90.00
15765;DHT22;7983;50.744;7.086;2023-07-22T13:24:27;27.50;90.20
15765;DHT22;7983;50.744;7.086;2023-07-22T13:26:57;27.60;84.20
15765;DHT22;7983;50.744;7.086;2023-07-22T13:29:25;27.60;84.50
15765;DHT22;7983;50.744;7.086;2023-07-22T13:31:55;27.60;84.20
15765;DHT22;7983;50.744;7.086;2023-07-22T13:34:21;27.70;81.40
15765;DHT22;7983;50.744;7.086;2023-07-22T13:36:48;27.60;83.50
15765;DHT22;7983;50.744;7.086;2023-07-22T13:39:16;27.70;85.90
15765;DHT22;7983;50.744;7.086;2023-07-22T13:41:42;27.70;85.20
15765;DHT22;7983;50.744;7.086;2023-07-22T13:44:10;27.80;84.90
15765;DHT22;7983;50.744;7.086;2023-07-22T13:46:36;27.90;83.30
15765;DHT22;7983;50.744;7.086;2023-07-22T13:49:01;27.90;82.90
15765;DHT22;7983;50.744;7.086;2023-07-22T13:51:27;28.00;82.80
15765;DHT22;7983;50.744;7.086;2023-07-22T13:53:52;28.10;85.00
15765;DHT22;7983;50.744;7.086;2023-07-22T13:56:20;28.20;85.00
15765;DHT22;7983;50.744;7.086;2023-07-22T13:58:47;28.40;86.80
15765;DHT22;7983;50.744;7.086;2023-07-22T14:01:15;28.50;80.30
15765;DHT22;7983;50.744;7.086;2023-07-22T14:03:43;28.60;79.60
15765;DHT22;7983;50.744;7.086;2023-07-22T14:06:09;28.60;76.90
15765;DHT22;7983;50.744;7.086;2023-07-22T14:08:35;28.60;76.40
15765;DHT22;7983;50.744;7.086;2023-07-22T14:11:00;28.60;77.00
15765;DHT22;7983;50.744;7.086;2023-07-22T14:13:28;28.50;75.80
15765;DHT22;7983;50.744;7.086;2023-07-22T14:15:54;28.40;77.30
15765;DHT22;7983;50.744;7.086;2023-07-22T14:18:19;28.40;78.00
15765;DHT22;7983;50.744;7.086;2023-07-22T14:20:45;28.40;77.10
15765;DHT22;7983;50.744;7.086;2023-07-22T14:23:13;28.50;79.10
15765;DHT22;7983;50.744;7.086;2023-07-22T14:25:39;28.50;76.50
15765;DHT22;7983;50.744;7.086;2023-07-22T14:28:07;28.60;79.40
15765;DHT22;7983;50.744;7.086;2023-07-22T14:30:33;28.70;79.70
15765;DHT22;7983;50.744;7.086;2023-07-22T14:33:03;28.80;77.00
15765;DHT22;7983;50.744;7.086;2023-07-22T14:35:31;28.90;74.60
15765;DHT22;7983;50.744;7.086;2023-07-22T14:38:05;28.90;73.60
15765;DHT22;7983;50.744;7.086;2023-07-22T14:40:32;29.00;75.40
15765;DHT22;7983;50.744;7.086;2023-07-22T14:43:03;29.10;79.40
15765;DHT22;7983;50.744;7.086;2023-07-22T14:45:32;29.20;75.80
15765;DHT22;7983;50.744;7.086;2023-07-22T14:48:00;29.20;73.20
15765;DHT22;7983;50.744;7.086;2023-07-22T14:50:28;29.20;70.30
15765;DHT22;7983;50.744;7.086;2023-07-22T14:52:57;29.20;73.80
15765;DHT22;7983;50.744;7.086;2023-07-22T14:55:22;29.20;75.40
15765;DHT22;7983;50.744;7.086;2023-07-22T14:57:55;29.30;73.90
15765;DHT22;7983;50.744;7.086;2023-07-22T15:00:20;29.30;70.90
15765;DHT22;7983;50.744;7.086;2023-07-22T15:02:48;29.30;73.20
15765;DHT22;7983;50.744;7.086;2023-07-22T15:05:14;29.30;73.00
15765;DHT22;7983;50.744;7.086;2023-07-22T15:07:39;29.30;74.30
15765;DHT22;7983;50.744;7.086;2023-07-22T15:10:06;29.30;73.80
15765;DHT22;7983;50.744;7.086;2023-07-22T15:12:32;29.40;74.50
15765;DHT22;7983;50.744;7.086;2023-07-22T15:15:01;29.40;73.00
15765;DHT22;7983;50.744;7.086;2023-07-22T15:17:26;29.40;70.60
15765;DHT22;7983;50.744;7.086;2023-07-22T15:19:55;29.40;69.90
15765;DHT22;7983;50.744;7.086;2023-07-22T15:22:20;29.30;67.70
15765;DHT22;7983;50.744;7.086;2023-07-22T15:24:48;29.20;68.20
15765;DHT22;7983;50.744;7.086;2023-07-22T15:27:16;29.20;68.50
15765;DHT22;7983;50.744;7.086;2023-07-22T15:29:44;29.00;67.60
15765;DHT22;7983;50.744;7.086;2023-07-22T15:32:10;29.00;68.60
15765;DHT22;7983;50.744;7.086;2023-07-22T15:34:38;28.90;68.70
15765;DHT22;7983;50.744;7.086;2023-07-22T15:37:04;28.80;68.80
15765;DHT22;7983;50.744;7.086;2023-07-22T15:39:30;28.70;69.70
15765;DHT22;7983;50.744;7.086;2023-07-22T15:41:58;28.70;68.30
15765;DHT22;7983;50.744;7.086;2023-07-22T15:44:26;28.60;68.70
15765;DHT22;7983;50.744;7.086;2023-07-22T15:46:56;28.50;68.60
15765;DHT22;7983;50.744;7.086;2023-07-22T15:49:22;28.40;68.30
15765;DHT22;7983;50.744;7.086;2023-07-22T15:51:52;28.40;69.90
15765;DHT22;7983;50.744;7.086;2023-07-22T15:54:20;28.30;69.90
15765;DHT22;7983;50.744;7.086;2023-07-22T15:56:48;28.30;70.00
15765;DHT22;7983;50.744;7.086;2023-07-22T15:59:16;28.30;70.70
15765;DHT22;7983;50.744;7.086;2023-07-22T16:01:41;28.20;71.30
15765;DHT22;7983;50.744;7.086;2023-07-22T16:04:10;28.10;69.90
15765;DHT22;7983;50.744;7.086;2023-07-22T16:06:38;28.00;69.40
15765;DHT22;7983;50.744;7.086;2023-07-22T16:09:04;28.00;67.70
15765;DHT22;7983;50.744;7.086;2023-07-22T16:11:30;27.90;70.20
15765;DHT22;7983;50.744;7.086;2023-07-22T16:13:55;27.90;70.10